TVS431P TNCM-GOBD
Flight info
| Callsign | TVS431P |
|---|---|
| Flight time | 5h 47m |
| Altitude | 39000 |
| Route | ELOPO DCT OTUSU DCT ELJEZ DCT 21N050W/N0444F410 DCT 23N040W/M078F410 DCT 22N036W DCT ERNEK/N0444F410 DCT EVKAS DCT BVT DCT MOGSA DCT PIVSA |
| Aircraft | B738/M-SDE3FGHIJ1J3J4J7M3P2RWXYZ/LB1D1 |
Departure
| Time | 2026-04-25 13:38 |
|---|---|
| Airport | Princess Juliana International Airport (TNCM) |
Arrival
| Time | 2026-04-25 19:25 |
|---|---|
| Airport | Blaise Diagne International Airport (GOBD) |
| Time | Latitude | Longitude | Altitude | Speed | Heading |
|---|---|---|---|---|---|
| 2026-04-25 12:58 | 18.04352 | -63.11224 | 20 ft | 0 kts | 352° |
| 2026-04-25 13:25 | 18.04351 | -63.11224 | 20 ft | 1 kts | 352° |
| 2026-04-25 13:26 | 18.04335 | -63.11221 | 22 ft | 3 kts | 352° |
| 2026-04-25 13:26 | 18.04316 | -63.11218 | 20 ft | 3 kts | 2° |
| 2026-04-25 13:26 | 18.04300 | -63.11223 | 22 ft | 3 kts | 50° |
| 2026-04-25 13:26 | 18.04289 | -63.11240 | 20 ft | 3 kts | 60° |
| 2026-04-25 13:27 | 18.04279 | -63.11258 | 21 ft | 3 kts | 60° |
| 2026-04-25 13:27 | 18.04269 | -63.11277 | 22 ft | 3 kts | 62° |
| 2026-04-25 13:27 | 18.04259 | -63.11295 | 22 ft | 3 kts | 53° |
| 2026-04-25 13:27 | 18.04246 | -63.11309 | 21 ft | 3 kts | 17° |
| 2026-04-25 13:28 | 18.04231 | -63.11311 | 22 ft | 3 kts | 356° |
| 2026-04-25 13:28 | 18.04224 | -63.11310 | 23 ft | 3 kts | 354° |
| 2026-04-25 13:28 | 18.04191 | -63.11305 | 21 ft | 3 kts | 350° |
| 2026-04-25 13:28 | 18.04178 | -63.11303 | 20 ft | 1 kts | 352° |
| 2026-04-25 13:32 | 18.04196 | -63.11306 | 22 ft | 5 kts | 348° |
| 2026-04-25 13:33 | 18.04235 | -63.11342 | 20 ft | 10 kts | 287° |
| 2026-04-25 13:33 | 18.04229 | -63.11423 | 20 ft | 11 kts | 253° |
| 2026-04-25 13:33 | 18.04196 | -63.11496 | 22 ft | 11 kts | 247° |
| 2026-04-25 13:33 | 18.04170 | -63.11541 | 20 ft | 11 kts | 229° |
| 2026-04-25 13:34 | 18.04108 | -63.11619 | 20 ft | 10 kts | 230° |
| 2026-04-25 13:34 | 18.04067 | -63.11679 | 22 ft | 10 kts | 247° |
| 2026-04-25 13:34 | 18.04054 | -63.11750 | 20 ft | 10 kts | 261° |
| 2026-04-25 13:34 | 18.04045 | -63.11819 | 20 ft | 10 kts | 262° |
| 2026-04-25 13:35 | 18.04035 | -63.11881 | 20 ft | 8 kts | 255° |
| 2026-04-25 13:35 | 18.04008 | -63.11931 | 20 ft | 8 kts | 234° |
| 2026-04-25 13:35 | 18.03969 | -63.11965 | 21 ft | 7 kts | 191° |
| 2026-04-25 13:35 | 18.03945 | -63.11951 | 21 ft | 3 kts | 103° |
| 2026-04-25 13:36 | 18.03946 | -63.11939 | 21 ft | 0 kts | 85° |
| 2026-04-25 13:37 | 18.03953 | -63.11879 | 21 ft | 38 kts | 81° |
| 2026-04-25 13:38 | 18.04042 | -63.11264 | 21 ft | 129 kts | 81° |
| 2026-04-25 13:38 | 18.04211 | -63.10143 | 465 ft | 166 kts | 84° |
| 2026-04-25 13:38 | 18.03985 | -63.08992 | 1409 ft | 171 kts | 128° |
| 2026-04-25 13:38 | 18.02964 | -63.08225 | 2012 ft | 197 kts | 159° |
| 2026-04-25 13:39 | 18.01541 | -63.07821 | 2414 ft | 224 kts | 167° |
| 2026-04-25 13:39 | 17.99969 | -63.07422 | 2800 ft | 247 kts | 166° |
| 2026-04-25 13:39 | 17.98241 | -63.06968 | 3424 ft | 262 kts | 166° |
| 2026-04-25 13:39 | 17.96478 | -63.06446 | 4394 ft | 264 kts | 158° |
| 2026-04-25 13:40 | 17.94946 | -63.05392 | 5456 ft | 267 kts | 139° |
| 2026-04-25 13:40 | 17.93770 | -63.03829 | 6252 ft | 278 kts | 124° |
| 2026-04-25 13:40 | 17.92742 | -63.02072 | 7048 ft | 286 kts | 123° |
| 2026-04-25 13:40 | 17.91724 | -63.00286 | 8040 ft | 284 kts | 123° |
| 2026-04-25 13:41 | 17.90702 | -62.98501 | 8966 ft | 287 kts | 124° |
| 2026-04-25 13:41 | 17.89658 | -62.96699 | 9844 ft | 291 kts | 124° |
| 2026-04-25 13:41 | 17.88582 | -62.94860 | 10493 ft | 304 kts | 124° |
| 2026-04-25 13:41 | 17.87420 | -62.92896 | 10734 ft | 328 kts | 124° |
| 2026-04-25 13:42 | 17.86192 | -62.90828 | 11319 ft | 338 kts | 124° |
| 2026-04-25 13:42 | 17.84939 | -62.88721 | 12074 ft | 342 kts | 124° |
| 2026-04-25 13:42 | 17.83669 | -62.86590 | 12838 ft | 346 kts | 125° |
| 2026-04-25 13:42 | 17.82382 | -62.84434 | 13573 ft | 351 kts | 125° |
| 2026-04-25 13:43 | 17.81092 | -62.82276 | 14215 ft | 356 kts | 125° |
| 2026-04-25 13:43 | 17.79768 | -62.80061 | 14858 ft | 360 kts | 125° |
| 2026-04-25 13:43 | 17.78426 | -62.77820 | 15509 ft | 365 kts | 125° |
| 2026-04-25 13:43 | 17.77069 | -62.75554 | 16150 ft | 369 kts | 125° |
| 2026-04-25 13:44 | 17.75694 | -62.73259 | 16788 ft | 374 kts | 125° |
| 2026-04-25 13:44 | 17.74304 | -62.70939 | 17407 ft | 378 kts | 125° |
| 2026-04-25 13:44 | 17.72896 | -62.68592 | 18056 ft | 381 kts | 125° |
| 2026-04-25 13:44 | 17.71479 | -62.66227 | 18660 ft | 384 kts | 125° |
| 2026-04-25 13:45 | 17.70049 | -62.63842 | 19202 ft | 388 kts | 125° |
| 2026-04-25 13:45 | 17.68604 | -62.61435 | 19739 ft | 392 kts | 125° |
| 2026-04-25 13:45 | 17.67144 | -62.59003 | 20291 ft | 396 kts | 125° |
| 2026-04-25 13:45 | 17.65873 | -62.56417 | 20818 ft | 404 kts | 114° |
| 2026-04-25 13:46 | 17.65128 | -62.53556 | 21352 ft | 412 kts | 102° |
| 2026-04-25 13:46 | 17.64923 | -62.50539 | 21875 ft | 418 kts | 92° |
| 2026-04-25 13:46 | 17.64945 | -62.47477 | 22387 ft | 422 kts | 91° |
| 2026-04-25 13:46 | 17.65007 | -62.44383 | 22882 ft | 427 kts | 91° |
| 2026-04-25 13:47 | 17.65077 | -62.41256 | 23352 ft | 431 kts | 91° |
| 2026-04-25 13:47 | 17.65142 | -62.38103 | 23793 ft | 435 kts | 91° |
| 2026-04-25 13:47 | 17.65196 | -62.34922 | 24201 ft | 438 kts | 91° |
| 2026-04-25 13:47 | 17.65241 | -62.31723 | 24615 ft | 441 kts | 91° |
| 2026-04-25 13:48 | 17.65280 | -62.28495 | 25018 ft | 444 kts | 92° |
| 2026-04-25 13:48 | 17.65314 | -62.25248 | 25418 ft | 447 kts | 92° |
| 2026-04-25 13:48 | 17.65345 | -62.21978 | 25814 ft | 450 kts | 92° |
| 2026-04-25 13:48 | 17.65375 | -62.18687 | 26217 ft | 453 kts | 92° |
| 2026-04-25 13:49 | 17.65404 | -62.15373 | 26614 ft | 456 kts | 92° |
| 2026-04-25 13:49 | 17.65433 | -62.12038 | 26997 ft | 459 kts | 92° |
| 2026-04-25 13:49 | 17.65462 | -62.08671 | 27308 ft | 464 kts | 92° |
| 2026-04-25 13:49 | 17.65491 | -62.05271 | 27656 ft | 468 kts | 92° |
| 2026-04-25 13:50 | 17.65519 | -62.01850 | 28043 ft | 470 kts | 92° |
| 2026-04-25 13:50 | 17.65548 | -61.98413 | 28415 ft | 473 kts | 92° |
| 2026-04-25 13:50 | 17.65576 | -61.94954 | 28763 ft | 476 kts | 92° |
| 2026-04-25 13:50 | 17.65603 | -61.91473 | 29094 ft | 479 kts | 92° |
| 2026-04-25 13:51 | 17.65630 | -61.87975 | 29500 ft | 480 kts | 92° |
| 2026-04-25 13:51 | 17.65657 | -61.84466 | 29883 ft | 482 kts | 92° |
| 2026-04-25 13:51 | 17.65683 | -61.80942 | 30179 ft | 485 kts | 92° |
| 2026-04-25 13:51 | 17.65708 | -61.77391 | 30435 ft | 489 kts | 92° |
| 2026-04-25 13:52 | 17.65733 | -61.73817 | 30702 ft | 491 kts | 92° |
| 2026-04-25 13:52 | 17.65758 | -61.70231 | 30976 ft | 494 kts | 92° |
| 2026-04-25 13:52 | 17.65782 | -61.66624 | 31241 ft | 496 kts | 92° |
| 2026-04-25 13:52 | 17.65805 | -61.63052 | 31497 ft | 498 kts | 92° |
| 2026-04-25 13:53 | 17.65828 | -61.59412 | 31750 ft | 501 kts | 92° |
| 2026-04-25 13:53 | 17.65850 | -61.55752 | 31997 ft | 503 kts | 92° |
| 2026-04-25 13:53 | 17.65872 | -61.52079 | 32244 ft | 505 kts | 92° |
| 2026-04-25 13:53 | 17.65893 | -61.48390 | 32508 ft | 507 kts | 92° |
| 2026-04-25 13:54 | 17.65914 | -61.44699 | 32842 ft | 506 kts | 92° |
| 2026-04-25 13:54 | 17.65934 | -61.41011 | 33210 ft | 505 kts | 92° |
| 2026-04-25 13:54 | 17.65954 | -61.37330 | 33581 ft | 505 kts | 92° |
| 2026-04-25 13:54 | 17.65973 | -61.33650 | 33912 ft | 505 kts | 93° |
| 2026-04-25 13:55 | 17.65990 | -61.29968 | 34157 ft | 506 kts | 93° |
| 2026-04-25 13:55 | 17.66007 | -61.26273 | 34387 ft | 507 kts | 93° |
| 2026-04-25 13:55 | 17.66023 | -61.22573 | 34685 ft | 507 kts | 93° |
| 2026-04-25 13:55 | 17.66039 | -61.18890 | 35023 ft | 505 kts | 93° |
| 2026-04-25 13:56 | 17.66054 | -61.15210 | 35344 ft | 504 kts | 93° |
| 2026-04-25 13:56 | 17.66069 | -61.11541 | 35637 ft | 503 kts | 93° |
| 2026-04-25 13:56 | 17.66082 | -61.07874 | 35909 ft | 503 kts | 93° |
| 2026-04-25 13:56 | 17.66095 | -61.04207 | 36177 ft | 503 kts | 93° |
| 2026-04-25 13:57 | 17.66107 | -61.00546 | 36466 ft | 502 kts | 93° |
| 2026-04-25 13:57 | 17.66114 | -60.98121 | 36652 ft | 502 kts | 93° |
| 2026-04-25 13:57 | 17.66129 | -60.93231 | 37015 ft | 501 kts | 93° |
| 2026-04-25 13:57 | 17.66139 | -60.89578 | 37281 ft | 501 kts | 93° |
| 2026-04-25 13:58 | 17.66148 | -60.85932 | 37552 ft | 500 kts | 93° |
| 2026-04-25 13:58 | 17.66157 | -60.82287 | 37817 ft | 500 kts | 93° |
| 2026-04-25 13:58 | 17.66165 | -60.78646 | 38066 ft | 499 kts | 93° |
| 2026-04-25 13:58 | 17.66172 | -60.75007 | 38307 ft | 499 kts | 93° |
| 2026-04-25 13:59 | 17.66179 | -60.71372 | 38516 ft | 499 kts | 93° |
| 2026-04-25 13:59 | 17.66184 | -60.67727 | 38688 ft | 500 kts | 93° |
| 2026-04-25 13:59 | 17.66189 | -60.64081 | 38887 ft | 500 kts | 93° |
| 2026-04-25 13:59 | 17.66194 | -60.60439 | 39019 ft | 501 kts | 93° |
| 2026-04-25 14:00 | 17.66197 | -60.56777 | 39004 ft | 503 kts | 93° |
| 2026-04-25 14:00 | 17.66204 | -60.49468 | 39008 ft | 499 kts | 93° |
| 2026-04-25 14:01 | 17.66209 | -60.42212 | 39009 ft | 496 kts | 93° |
| 2026-04-25 14:01 | 17.66210 | -60.35055 | 39012 ft | 493 kts | 93° |
| 2026-04-25 14:02 | 17.66207 | -60.27877 | 39017 ft | 492 kts | 94° |
| 2026-04-25 14:02 | 17.66201 | -60.20696 | 39028 ft | 495 kts | 93° |
| 2026-04-25 14:03 | 17.66192 | -60.13427 | 39026 ft | 502 kts | 93° |
| 2026-04-25 14:03 | 17.66181 | -60.06084 | 39024 ft | 505 kts | 93° |
| 2026-04-25 14:04 | 17.66170 | -59.98699 | 39019 ft | 507 kts | 93° |
| 2026-04-25 14:04 | 17.66155 | -59.91295 | 39017 ft | 508 kts | 93° |
| 2026-04-25 14:05 | 17.66138 | -59.83911 | 39005 ft | 502 kts | 94° |
| 2026-04-25 14:05 | 17.66121 | -59.76672 | 39009 ft | 494 kts | 94° |
| 2026-04-25 14:06 | 17.66096 | -59.69466 | 39024 ft | 494 kts | 94° |
| 2026-04-25 14:06 | 17.66068 | -59.62258 | 39023 ft | 495 kts | 94° |
| 2026-04-25 14:07 | 17.66039 | -59.55046 | 39029 ft | 495 kts | 94° |
| 2026-04-25 14:07 | 17.66008 | -59.47825 | 39019 ft | 495 kts | 94° |
| 2026-04-25 14:08 | 17.65974 | -59.40609 | 39022 ft | 495 kts | 94° |
| 2026-04-25 14:08 | 17.65938 | -59.33394 | 39022 ft | 495 kts | 94° |
| 2026-04-25 14:09 | 17.65899 | -59.26187 | 39024 ft | 494 kts | 94° |
| 2026-04-25 14:09 | 17.65858 | -59.18988 | 39020 ft | 493 kts | 94° |
| 2026-04-25 14:10 | 17.65814 | -59.11802 | 39020 ft | 492 kts | 94° |
| 2026-04-25 14:10 | 17.65767 | -59.04682 | 39025 ft | 491 kts | 94° |
| 2026-04-25 14:11 | 17.65718 | -58.97525 | 39033 ft | 490 kts | 94° |
| 2026-04-25 14:11 | 17.65667 | -58.90389 | 39024 ft | 489 kts | 94° |
| 2026-04-25 14:12 | 17.65613 | -58.83265 | 39025 ft | 488 kts | 94° |
| 2026-04-25 14:12 | 17.65557 | -58.76159 | 39026 ft | 487 kts | 94° |
| 2026-04-25 14:13 | 17.65498 | -58.69063 | 39031 ft | 486 kts | 94° |
| 2026-04-25 14:13 | 17.65436 | -58.61975 | 39025 ft | 486 kts | 94° |
| 2026-04-25 14:14 | 17.65372 | -58.54891 | 39027 ft | 486 kts | 94° |
| 2026-04-25 14:14 | 17.65306 | -58.47801 | 39033 ft | 486 kts | 94° |
| 2026-04-25 14:15 | 17.65236 | -58.40703 | 39030 ft | 487 kts | 94° |
| 2026-04-25 14:15 | 17.65165 | -58.33593 | 39035 ft | 488 kts | 94° |
| 2026-04-25 14:16 | 17.65090 | -58.26466 | 39034 ft | 489 kts | 94° |
| 2026-04-25 14:16 | 17.65013 | -58.19324 | 39030 ft | 491 kts | 94° |
| 2026-04-25 14:17 | 17.64933 | -58.12163 | 39031 ft | 491 kts | 94° |
| 2026-04-25 14:17 | 17.64851 | -58.04995 | 39024 ft | 492 kts | 94° |
| 2026-04-25 14:18 | 17.64766 | -57.97817 | 39032 ft | 492 kts | 94° |
| 2026-04-25 14:18 | 17.64678 | -57.90640 | 39021 ft | 492 kts | 94° |
| 2026-04-25 14:19 | 17.64603 | -57.84677 | 39029 ft | 492 kts | 94° |
| 2026-04-25 14:19 | 17.64511 | -57.77511 | 39030 ft | 491 kts | 94° |
| 2026-04-25 14:20 | 17.64416 | -57.70357 | 39033 ft | 491 kts | 94° |
| 2026-04-25 14:20 | 17.64318 | -57.63210 | 39029 ft | 490 kts | 94° |
| 2026-04-25 14:21 | 17.64219 | -57.56078 | 39026 ft | 489 kts | 94° |
| 2026-04-25 14:21 | 17.64959 | -57.48999 | 39033 ft | 494 kts | 73° |
| 2026-04-25 14:21 | 17.66300 | -57.45681 | 39023 ft | 496 kts | 60° |
| 2026-04-25 14:22 | 17.68234 | -57.42698 | 39044 ft | 494 kts | 51° |
| 2026-04-25 14:22 | 17.72525 | -57.37067 | 39031 ft | 494 kts | 50° |
| 2026-04-25 14:23 | 17.76809 | -57.31423 | 39039 ft | 495 kts | 51° |
| 2026-04-25 14:23 | 17.81043 | -57.25727 | 39038 ft | 495 kts | 51° |
| 2026-04-25 14:24 | 17.85265 | -57.20001 | 39040 ft | 496 kts | 51° |
| 2026-04-25 14:24 | 17.89492 | -57.14265 | 39039 ft | 497 kts | 51° |
| 2026-04-25 14:25 | 17.93727 | -57.08520 | 39041 ft | 498 kts | 51° |
| 2026-04-25 14:25 | 17.97967 | -57.02765 | 39060 ft | 498 kts | 51° |
| 2026-04-25 14:26 | 18.01700 | -56.96645 | 39045 ft | 499 kts | 64° |
| 2026-04-25 14:26 | 18.04660 | -56.90044 | 39040 ft | 500 kts | 66° |
| 2026-04-25 14:27 | 18.07585 | -56.83412 | 39036 ft | 500 kts | 65° |
| 2026-04-25 14:27 | 18.10550 | -56.76795 | 39040 ft | 500 kts | 65° |
| 2026-04-25 14:28 | 18.13541 | -56.70189 | 39036 ft | 501 kts | 65° |
| 2026-04-25 14:28 | 18.16538 | -56.63583 | 39036 ft | 500 kts | 65° |
| 2026-04-25 14:29 | 18.19528 | -56.56981 | 39037 ft | 500 kts | 65° |
| 2026-04-25 14:29 | 18.22513 | -56.50379 | 39038 ft | 499 kts | 65° |
| 2026-04-25 14:30 | 18.25490 | -56.43785 | 39042 ft | 499 kts | 65° |
| 2026-04-25 14:30 | 18.29925 | -56.33947 | 39045 ft | 498 kts | 65° |
| 2026-04-25 14:31 | 18.32888 | -56.27367 | 39044 ft | 497 kts | 65° |
| 2026-04-25 14:31 | 18.35844 | -56.20793 | 39040 ft | 497 kts | 65° |
| 2026-04-25 14:32 | 18.38796 | -56.14222 | 39051 ft | 497 kts | 65° |
| 2026-04-25 14:32 | 18.41747 | -56.07648 | 39044 ft | 496 kts | 65° |
| 2026-04-25 14:33 | 18.44695 | -56.01071 | 39047 ft | 497 kts | 65° |
| 2026-04-25 14:33 | 18.47642 | -55.94488 | 39043 ft | 497 kts | 65° |
| 2026-04-25 14:34 | 18.50589 | -55.87900 | 39043 ft | 498 kts | 65° |
| 2026-04-25 14:34 | 18.53539 | -55.81297 | 39048 ft | 498 kts | 65° |
| 2026-04-25 14:35 | 18.56488 | -55.74688 | 39051 ft | 498 kts | 65° |
| 2026-04-25 14:35 | 18.59438 | -55.68071 | 39052 ft | 499 kts | 65° |
| 2026-04-25 14:36 | 18.62392 | -55.61437 | 39054 ft | 500 kts | 65° |
| 2026-04-25 14:36 | 18.65345 | -55.54796 | 39053 ft | 501 kts | 65° |
| 2026-04-25 14:37 | 18.68299 | -55.48147 | 39052 ft | 501 kts | 65° |
| 2026-04-25 14:37 | 18.71252 | -55.41493 | 39041 ft | 501 kts | 65° |
| 2026-04-25 14:38 | 18.74202 | -55.34836 | 39047 ft | 501 kts | 65° |
| 2026-04-25 14:38 | 18.77148 | -55.28181 | 39063 ft | 500 kts | 65° |
| 2026-04-25 14:39 | 18.80090 | -55.21529 | 39049 ft | 500 kts | 65° |
| 2026-04-25 14:39 | 18.83029 | -55.14875 | 39049 ft | 500 kts | 65° |
| 2026-04-25 14:40 | 18.85963 | -55.08225 | 39050 ft | 500 kts | 65° |
| 2026-04-25 14:40 | 18.88893 | -55.01575 | 39047 ft | 499 kts | 65° |
| 2026-04-25 14:41 | 18.91819 | -54.94929 | 39056 ft | 499 kts | 65° |
| 2026-04-25 14:41 | 18.94740 | -54.88284 | 39054 ft | 499 kts | 65° |
| 2026-04-25 14:42 | 18.97166 | -54.82759 | 39054 ft | 499 kts | 65° |
| 2026-04-25 14:42 | 19.00577 | -54.74986 | 39048 ft | 499 kts | 65° |
| 2026-04-25 14:43 | 19.03494 | -54.68328 | 39057 ft | 499 kts | 65° |
| 2026-04-25 14:43 | 19.06409 | -54.61667 | 39049 ft | 499 kts | 65° |
| 2026-04-25 14:44 | 19.09322 | -54.55002 | 39052 ft | 500 kts | 65° |
| 2026-04-25 14:44 | 19.12234 | -54.48332 | 39057 ft | 500 kts | 65° |
| 2026-04-25 14:45 | 19.15145 | -54.41658 | 39064 ft | 500 kts | 65° |
| 2026-04-25 14:45 | 19.18054 | -54.34977 | 39056 ft | 500 kts | 65° |
| 2026-04-25 14:46 | 19.20965 | -54.28287 | 39055 ft | 500 kts | 65° |
| 2026-04-25 14:46 | 19.23873 | -54.21599 | 39051 ft | 501 kts | 65° |
| 2026-04-25 14:47 | 19.26290 | -54.16035 | 39058 ft | 500 kts | 65° |
| 2026-04-25 14:47 | 19.29684 | -54.08207 | 39057 ft | 501 kts | 65° |
| 2026-04-25 14:48 | 19.32585 | -54.01509 | 39068 ft | 500 kts | 65° |
| 2026-04-25 14:48 | 19.35464 | -53.94849 | 39053 ft | 501 kts | 65° |
| 2026-04-25 14:49 | 19.38361 | -53.88143 | 39056 ft | 501 kts | 65° |
| 2026-04-25 14:49 | 19.41255 | -53.81435 | 39059 ft | 501 kts | 65° |
| 2026-04-25 14:50 | 19.44149 | -53.74718 | 39059 ft | 501 kts | 65° |
| 2026-04-25 14:50 | 19.47039 | -53.68004 | 39060 ft | 501 kts | 65° |
| 2026-04-25 14:51 | 19.49926 | -53.61287 | 39056 ft | 501 kts | 65° |
| 2026-04-25 14:51 | 19.52811 | -53.54567 | 39055 ft | 501 kts | 65° |
| 2026-04-25 14:52 | 19.55696 | -53.47839 | 39064 ft | 501 kts | 65° |
| 2026-04-25 14:52 | 19.58112 | -53.42198 | 39061 ft | 502 kts | 65° |
| 2026-04-25 14:53 | 19.61463 | -53.34366 | 39059 ft | 502 kts | 65° |
| 2026-04-25 14:53 | 19.64344 | -53.27621 | 39062 ft | 502 kts | 65° |
| 2026-04-25 14:54 | 19.67224 | -53.20872 | 39058 ft | 502 kts | 65° |
| 2026-04-25 14:54 | 19.70103 | -53.14117 | 39064 ft | 503 kts | 65° |
| 2026-04-25 14:55 | 19.72983 | -53.07350 | 39062 ft | 503 kts | 65° |
| 2026-04-25 14:55 | 19.75862 | -53.00579 | 39055 ft | 503 kts | 65° |
| 2026-04-25 14:56 | 19.78738 | -52.93804 | 39063 ft | 503 kts | 65° |
| 2026-04-25 14:56 | 19.81613 | -52.87025 | 39063 ft | 504 kts | 65° |
| 2026-04-25 14:57 | 19.84487 | -52.80240 | 39060 ft | 504 kts | 65° |
| 2026-04-25 14:57 | 19.87339 | -52.73497 | 39062 ft | 504 kts | 65° |
| 2026-04-25 14:58 | 19.90208 | -52.66705 | 39064 ft | 504 kts | 65° |
| 2026-04-25 14:58 | 19.93075 | -52.59910 | 39060 ft | 504 kts | 65° |
| 2026-04-25 14:59 | 19.95942 | -52.53108 | 39063 ft | 504 kts | 65° |
| 2026-04-25 14:59 | 19.98804 | -52.46307 | 39066 ft | 504 kts | 65° |
| 2026-04-25 15:00 | 20.01662 | -52.39508 | 39063 ft | 504 kts | 65° |
| 2026-04-25 15:00 | 20.04516 | -52.32709 | 39066 ft | 503 kts | 65° |
| 2026-04-25 15:01 | 20.07366 | -52.25911 | 39061 ft | 503 kts | 65° |
| 2026-04-25 15:01 | 20.10211 | -52.19118 | 39061 ft | 502 kts | 65° |
| 2026-04-25 15:02 | 20.13049 | -52.12331 | 39059 ft | 502 kts | 65° |
| 2026-04-25 15:02 | 20.15884 | -52.05543 | 39061 ft | 501 kts | 65° |
| 2026-04-25 15:03 | 20.18711 | -51.98765 | 39076 ft | 501 kts | 65° |
| 2026-04-25 15:03 | 20.21537 | -51.91982 | 39059 ft | 501 kts | 65° |
| 2026-04-25 15:04 | 20.23890 | -51.86328 | 39109 ft | 505 kts | 65° |
| 2026-04-25 15:04 | 20.25315 | -51.82902 | 39271 ft | 506 kts | 65° |
| 2026-04-25 15:04 | 20.26739 | -51.79474 | 39425 ft | 506 kts | 65° |
| 2026-04-25 15:05 | 20.28161 | -51.76048 | 39531 ft | 505 kts | 65° |
| 2026-04-25 15:05 | 20.29579 | -51.72631 | 39646 ft | 503 kts | 65° |
| 2026-04-25 15:05 | 20.30988 | -51.69232 | 39747 ft | 501 kts | 65° |
| 2026-04-25 15:06 | 20.33792 | -51.62462 | 39983 ft | 499 kts | 65° |
| 2026-04-25 15:06 | 20.36603 | -51.55671 | 40057 ft | 504 kts | 65° |
| 2026-04-25 15:07 | 20.39435 | -51.48816 | 40067 ft | 506 kts | 65° |
| 2026-04-25 15:07 | 20.42273 | -51.41938 | 40067 ft | 507 kts | 65° |
| 2026-04-25 15:08 | 20.45111 | -51.35052 | 40064 ft | 508 kts | 65° |
| 2026-04-25 15:08 | 20.47947 | -51.28160 | 40063 ft | 507 kts | 65° |
| 2026-04-25 15:09 | 20.50776 | -51.21277 | 40064 ft | 506 kts | 65° |
| 2026-04-25 15:09 | 20.55002 | -51.10978 | 40060 ft | 504 kts | 65° |
| 2026-04-25 15:10 | 20.57807 | -51.04129 | 40067 ft | 503 kts | 65° |
| 2026-04-25 15:11 | 20.62001 | -50.93875 | 40067 ft | 502 kts | 65° |
| 2026-04-25 15:11 | 20.64788 | -50.87050 | 40062 ft | 501 kts | 65° |
| 2026-04-25 15:12 | 20.68960 | -50.76812 | 40071 ft | 501 kts | 65° |
| 2026-04-25 15:12 | 20.71272 | -50.71132 | 40068 ft | 502 kts | 65° |
| 2026-04-25 15:13 | 20.75915 | -50.59705 | 40071 ft | 503 kts | 65° |
| 2026-04-25 15:14 | 20.78700 | -50.52839 | 40072 ft | 504 kts | 65° |
| 2026-04-25 15:14 | 20.81485 | -50.45961 | 40072 ft | 505 kts | 65° |
| 2026-04-25 15:15 | 20.84272 | -50.39069 | 40069 ft | 506 kts | 65° |
| 2026-04-25 15:15 | 20.87061 | -50.32165 | 40072 ft | 506 kts | 65° |
| 2026-04-25 15:16 | 20.89852 | -50.25245 | 40071 ft | 507 kts | 65° |
| 2026-04-25 15:16 | 20.94019 | -50.14896 | 40069 ft | 507 kts | 65° |
| 2026-04-25 15:17 | 20.98216 | -50.04450 | 40081 ft | 507 kts | 65° |
| 2026-04-25 15:18 | 21.00767 | -49.97407 | 40059 ft | 509 kts | 74° |
| 2026-04-25 15:18 | 21.03282 | -49.86377 | 40080 ft | 509 kts | 76° |
| 2026-04-25 15:19 | 21.04624 | -49.80251 | 40067 ft | 508 kts | 76° |
| 2026-04-25 15:19 | 21.06570 | -49.71659 | 40067 ft | 508 kts | 76° |
| 2026-04-25 15:20 | 21.08110 | -49.64282 | 40073 ft | 508 kts | 77° |
| 2026-04-25 15:20 | 21.09672 | -49.56910 | 40085 ft | 507 kts | 76° |
| 2026-04-25 15:21 | 21.11321 | -49.49564 | 40067 ft | 507 kts | 75° |
| 2026-04-25 15:21 | 21.13007 | -49.42231 | 40079 ft | 507 kts | 75° |
| 2026-04-25 15:22 | 21.14697 | -49.34894 | 40075 ft | 507 kts | 75° |
| 2026-04-25 15:22 | 21.16379 | -49.27556 | 40064 ft | 507 kts | 76° |
| 2026-04-25 15:23 | 21.18054 | -49.20215 | 40080 ft | 507 kts | 76° |
| 2026-04-25 15:23 | 21.19724 | -49.12874 | 40075 ft | 507 kts | 76° |
| 2026-04-25 15:24 | 21.21391 | -49.05531 | 40079 ft | 507 kts | 75° |
| 2026-04-25 15:24 | 21.22775 | -48.99425 | 40074 ft | 507 kts | 75° |
| 2026-04-25 15:25 | 21.24719 | -48.90833 | 40076 ft | 507 kts | 75° |
| 2026-04-25 15:25 | 21.26378 | -48.83480 | 40073 ft | 507 kts | 75° |
| 2026-04-25 15:26 | 21.28035 | -48.76126 | 40069 ft | 507 kts | 75° |
| 2026-04-25 15:26 | 21.29687 | -48.68770 | 40075 ft | 507 kts | 75° |
| 2026-04-25 15:27 | 21.31337 | -48.61413 | 40083 ft | 507 kts | 76° |
| 2026-04-25 15:28 | 21.33805 | -48.50377 | 40077 ft | 507 kts | 75° |
| 2026-04-25 15:28 | 21.35445 | -48.43021 | 40067 ft | 507 kts | 75° |
| 2026-04-25 15:29 | 21.37081 | -48.35671 | 40084 ft | 506 kts | 75° |
| 2026-04-25 15:29 | 21.38712 | -48.28322 | 40084 ft | 506 kts | 75° |
| 2026-04-25 15:30 | 21.40340 | -48.20978 | 40076 ft | 506 kts | 75° |
| 2026-04-25 15:30 | 21.41963 | -48.13636 | 40085 ft | 505 kts | 75° |
| 2026-04-25 15:31 | 21.43571 | -48.06345 | 40077 ft | 505 kts | 75° |
| 2026-04-25 15:31 | 21.45197 | -47.98959 | 40072 ft | 505 kts | 75° |
| 2026-04-25 15:32 | 21.46798 | -47.91667 | 40076 ft | 505 kts | 75° |
| 2026-04-25 15:32 | 21.48406 | -47.84329 | 40079 ft | 505 kts | 76° |
| 2026-04-25 15:33 | 21.50815 | -47.73306 | 40079 ft | 506 kts | 76° |
| 2026-04-25 15:33 | 21.52418 | -47.65952 | 40103 ft | 506 kts | 75° |
| 2026-04-25 15:34 | 21.54018 | -47.58590 | 40083 ft | 506 kts | 75° |
| 2026-04-25 15:34 | 21.55088 | -47.53661 | 40072 ft | 507 kts | 75° |
| 2026-04-25 15:35 | 21.58009 | -47.40165 | 40080 ft | 507 kts | 75° |
| 2026-04-25 15:36 | 21.60404 | -47.29055 | 40084 ft | 506 kts | 75° |
| 2026-04-25 15:36 | 21.61990 | -47.21680 | 40098 ft | 506 kts | 75° |
| 2026-04-25 15:37 | 21.63572 | -47.14304 | 40085 ft | 507 kts | 75° |
| 2026-04-25 15:37 | 21.65140 | -47.06977 | 40083 ft | 506 kts | 75° |
| 2026-04-25 15:38 | 21.66715 | -46.99600 | 40081 ft | 506 kts | 75° |
| 2026-04-25 15:38 | 21.68285 | -46.92231 | 40090 ft | 506 kts | 75° |
| 2026-04-25 15:39 | 21.69852 | -46.84858 | 40080 ft | 506 kts | 75° |
| 2026-04-25 15:39 | 21.71414 | -46.77492 | 40082 ft | 505 kts | 75° |
| 2026-04-25 15:40 | 21.72458 | -46.72563 | 40087 ft | 505 kts | 75° |
| 2026-04-25 15:40 | 21.74531 | -46.62747 | 40090 ft | 506 kts | 75° |
| 2026-04-25 15:41 | 21.76084 | -46.55371 | 40085 ft | 506 kts | 75° |
| 2026-04-25 15:41 | 21.77636 | -46.47986 | 40089 ft | 506 kts | 75° |
| 2026-04-25 15:42 | 21.79184 | -46.40600 | 40086 ft | 506 kts | 75° |
| 2026-04-25 15:42 | 21.80730 | -46.33206 | 40089 ft | 507 kts | 75° |
| 2026-04-25 15:43 | 21.82276 | -46.25800 | 40090 ft | 508 kts | 76° |
| 2026-04-25 15:43 | 21.83820 | -46.18382 | 40094 ft | 508 kts | 76° |
| 2026-04-25 15:44 | 21.85362 | -46.10955 | 40093 ft | 509 kts | 76° |
| 2026-04-25 15:44 | 21.86903 | -46.03519 | 40090 ft | 509 kts | 76° |
| 2026-04-25 15:45 | 21.88441 | -45.96077 | 40085 ft | 509 kts | 76° |
| 2026-04-25 15:45 | 21.89468 | -45.91096 | 40093 ft | 509 kts | 76° |
| 2026-04-25 15:46 | 21.91250 | -45.82436 | 40089 ft | 510 kts | 76° |
| 2026-04-25 15:46 | 21.92781 | -45.74978 | 40094 ft | 510 kts | 76° |
| 2026-04-25 15:47 | 21.94309 | -45.67519 | 40093 ft | 510 kts | 76° |
| 2026-04-25 15:47 | 21.95833 | -45.60059 | 40093 ft | 510 kts | 76° |
| 2026-04-25 15:48 | 21.97353 | -45.52598 | 40088 ft | 510 kts | 76° |
| 2026-04-25 15:48 | 21.98870 | -45.45136 | 40094 ft | 509 kts | 76° |
| 2026-04-25 15:49 | 22.00383 | -45.37677 | 40090 ft | 510 kts | 76° |
| 2026-04-25 15:49 | 22.01892 | -45.30216 | 40092 ft | 510 kts | 76° |
| 2026-04-25 15:50 | 22.03399 | -45.22749 | 40095 ft | 510 kts | 76° |
| 2026-04-25 15:50 | 22.04902 | -45.15284 | 40089 ft | 510 kts | 76° |
| 2026-04-25 15:51 | 22.06148 | -45.09081 | 40094 ft | 509 kts | 76° |
| 2026-04-25 15:51 | 22.07896 | -45.00356 | 40100 ft | 510 kts | 76° |
| 2026-04-25 15:52 | 22.09389 | -44.92883 | 40095 ft | 510 kts | 76° |
| 2026-04-25 15:52 | 22.10879 | -44.85408 | 40090 ft | 510 kts | 76° |
| 2026-04-25 15:53 | 22.12365 | -44.77938 | 40091 ft | 510 kts | 76° |
| 2026-04-25 15:53 | 22.13847 | -44.70461 | 40090 ft | 510 kts | 76° |
| 2026-04-25 15:54 | 22.15327 | -44.62983 | 40096 ft | 510 kts | 76° |
| 2026-04-25 15:54 | 22.16803 | -44.55503 | 40096 ft | 510 kts | 76° |
| 2026-04-25 15:55 | 22.18276 | -44.48019 | 40098 ft | 510 kts | 76° |
| 2026-04-25 15:55 | 22.19746 | -44.40531 | 40095 ft | 510 kts | 76° |
| 2026-04-25 15:56 | 22.21214 | -44.33036 | 40098 ft | 510 kts | 76° |
| 2026-04-25 15:56 | 22.22679 | -44.25540 | 40100 ft | 510 kts | 76° |
| 2026-04-25 15:57 | 22.24140 | -44.18042 | 40096 ft | 511 kts | 76° |
| 2026-04-25 15:57 | 22.25599 | -44.10534 | 40100 ft | 511 kts | 76° |
| 2026-04-25 15:58 | 22.27054 | -44.03029 | 40104 ft | 511 kts | 76° |
| 2026-04-25 15:58 | 22.28507 | -43.95512 | 40102 ft | 512 kts | 75° |
| 2026-04-25 15:59 | 22.29948 | -43.88041 | 40098 ft | 512 kts | 76° |
| 2026-04-25 15:59 | 22.31396 | -43.80512 | 40098 ft | 512 kts | 75° |
| 2026-04-25 16:00 | 22.32363 | -43.75474 | 40097 ft | 512 kts | 75° |
| 2026-04-25 16:00 | 22.34283 | -43.65443 | 40105 ft | 512 kts | 75° |
| 2026-04-25 16:01 | 22.35722 | -43.57903 | 40107 ft | 513 kts | 75° |
| 2026-04-25 16:01 | 22.37159 | -43.50354 | 40096 ft | 513 kts | 75° |
| 2026-04-25 16:02 | 22.38592 | -43.42806 | 40107 ft | 513 kts | 75° |
| 2026-04-25 16:02 | 22.40022 | -43.35254 | 40100 ft | 513 kts | 75° |
| 2026-04-25 16:03 | 22.41448 | -43.27698 | 40089 ft | 513 kts | 75° |
| 2026-04-25 16:03 | 22.42870 | -43.20151 | 40098 ft | 512 kts | 75° |
| 2026-04-25 16:04 | 22.44287 | -43.12603 | 40105 ft | 512 kts | 75° |
| 2026-04-25 16:04 | 22.45700 | -43.05060 | 40104 ft | 512 kts | 76° |
| 2026-04-25 16:05 | 22.47110 | -42.97515 | 40101 ft | 512 kts | 75° |
| 2026-04-25 16:06 | 22.49218 | -42.86194 | 40100 ft | 512 kts | 76° |
| 2026-04-25 16:06 | 22.50619 | -42.78643 | 40099 ft | 512 kts | 75° |
| 2026-04-25 16:07 | 22.52016 | -42.71096 | 40101 ft | 512 kts | 76° |
| 2026-04-25 16:07 | 22.53410 | -42.63542 | 40103 ft | 512 kts | 76° |
| 2026-04-25 16:08 | 22.54800 | -42.55990 | 40113 ft | 512 kts | 76° |
| 2026-04-25 16:08 | 22.56187 | -42.48433 | 40103 ft | 512 kts | 76° |
| 2026-04-25 16:09 | 22.57571 | -42.40870 | 40104 ft | 512 kts | 76° |
| 2026-04-25 16:09 | 22.58952 | -42.33306 | 40105 ft | 513 kts | 76° |
| 2026-04-25 16:10 | 22.60329 | -42.25740 | 40103 ft | 513 kts | 76° |
| 2026-04-25 16:10 | 22.61703 | -42.18171 | 40107 ft | 513 kts | 76° |
| 2026-04-25 16:11 | 22.63074 | -42.10596 | 40103 ft | 513 kts | 76° |
| 2026-04-25 16:11 | 22.64442 | -42.03019 | 40104 ft | 513 kts | 76° |
| 2026-04-25 16:12 | 22.65796 | -41.95496 | 40106 ft | 513 kts | 76° |
| 2026-04-25 16:12 | 22.67157 | -41.87916 | 40103 ft | 513 kts | 76° |
| 2026-04-25 16:13 | 22.68514 | -41.80335 | 40104 ft | 513 kts | 76° |
| 2026-04-25 16:13 | 22.69868 | -41.72752 | 40111 ft | 513 kts | 76° |
| 2026-04-25 16:14 | 22.71218 | -41.65168 | 40108 ft | 513 kts | 76° |
| 2026-04-25 16:14 | 22.72565 | -41.57579 | 40098 ft | 513 kts | 76° |
| 2026-04-25 16:15 | 22.73907 | -41.49993 | 40107 ft | 513 kts | 76° |
| 2026-04-25 16:15 | 22.75246 | -41.42406 | 40106 ft | 513 kts | 76° |
| 2026-04-25 16:16 | 22.76581 | -41.34816 | 40107 ft | 513 kts | 76° |
| 2026-04-25 16:16 | 22.77913 | -41.27225 | 40108 ft | 513 kts | 76° |
| 2026-04-25 16:17 | 22.79243 | -41.19628 | 40103 ft | 513 kts | 76° |
| 2026-04-25 16:17 | 22.80568 | -41.12027 | 40107 ft | 513 kts | 76° |
| 2026-04-25 16:18 | 22.81890 | -41.04429 | 40109 ft | 513 kts | 76° |
| 2026-04-25 16:18 | 22.83209 | -40.96824 | 40109 ft | 513 kts | 76° |
| 2026-04-25 16:19 | 22.84524 | -40.89219 | 40106 ft | 513 kts | 76° |
| 2026-04-25 16:19 | 22.85835 | -40.81611 | 40103 ft | 514 kts | 76° |
| 2026-04-25 16:20 | 22.87798 | -40.70187 | 40107 ft | 514 kts | 76° |
| 2026-04-25 16:21 | 22.89754 | -40.58746 | 40107 ft | 515 kts | 76° |
| 2026-04-25 16:21 | 22.91055 | -40.51109 | 40107 ft | 515 kts | 76° |
| 2026-04-25 16:22 | 22.92354 | -40.43466 | 40112 ft | 516 kts | 76° |
| 2026-04-25 16:22 | 22.93650 | -40.35810 | 40112 ft | 516 kts | 76° |
| 2026-04-25 16:23 | 22.94943 | -40.28153 | 40109 ft | 516 kts | 76° |
| 2026-04-25 16:23 | 22.96233 | -40.20486 | 40113 ft | 517 kts | 76° |
| 2026-04-25 16:24 | 22.97520 | -40.12817 | 40109 ft | 517 kts | 76° |
| 2026-04-25 16:24 | 22.98805 | -40.05139 | 40109 ft | 517 kts | 76° |
| 2026-04-25 16:25 | 23.00012 | -39.97446 | 40094 ft | 520 kts | 84° |
| 2026-04-25 16:25 | 22.98546 | -39.89818 | 40120 ft | 520 kts | 113° |
| 2026-04-25 16:26 | 22.95929 | -39.82507 | 40108 ft | 520 kts | 111° |
| 2026-04-25 16:26 | 22.93704 | -39.75025 | 40105 ft | 522 kts | 107° |
| 2026-04-25 16:27 | 22.91833 | -39.67420 | 40108 ft | 522 kts | 104° |
| 2026-04-25 16:27 | 22.90065 | -39.59782 | 40109 ft | 522 kts | 104° |
| 2026-04-25 16:28 | 22.88279 | -39.52149 | 40112 ft | 523 kts | 105° |
| 2026-04-25 16:28 | 22.86462 | -39.44523 | 40106 ft | 522 kts | 105° |
| 2026-04-25 16:29 | 22.84630 | -39.36902 | 40108 ft | 522 kts | 105° |
| 2026-04-25 16:29 | 22.82796 | -39.29291 | 40111 ft | 522 kts | 105° |
| 2026-04-25 16:30 | 22.81269 | -39.22961 | 40112 ft | 522 kts | 105° |
| 2026-04-25 16:30 | 22.79430 | -39.15349 | 40111 ft | 522 kts | 105° |
| 2026-04-25 16:31 | 22.77289 | -39.06504 | 40113 ft | 522 kts | 105° |
| 2026-04-25 16:31 | 22.75442 | -38.98896 | 40099 ft | 522 kts | 105° |
| 2026-04-25 16:32 | 22.73893 | -38.92528 | 40108 ft | 522 kts | 105° |
| 2026-04-25 16:32 | 22.72042 | -38.84934 | 40112 ft | 521 kts | 105° |
| 2026-04-25 16:33 | 22.70189 | -38.77347 | 40112 ft | 521 kts | 105° |
| 2026-04-25 16:33 | 22.68333 | -38.69765 | 40111 ft | 521 kts | 105° |
| 2026-04-25 16:34 | 22.66474 | -38.62188 | 40119 ft | 520 kts | 105° |
| 2026-04-25 16:34 | 22.64614 | -38.54619 | 40111 ft | 520 kts | 105° |
| 2026-04-25 16:35 | 22.62749 | -38.47053 | 40108 ft | 519 kts | 105° |
| 2026-04-25 16:35 | 22.60885 | -38.39505 | 40112 ft | 519 kts | 105° |
| 2026-04-25 16:36 | 22.59019 | -38.31962 | 40107 ft | 519 kts | 105° |
| 2026-04-25 16:36 | 22.57150 | -38.24428 | 40109 ft | 518 kts | 105° |
| 2026-04-25 16:37 | 22.55280 | -38.16904 | 40118 ft | 518 kts | 105° |
| 2026-04-25 16:37 | 22.53405 | -38.09377 | 40109 ft | 518 kts | 105° |
| 2026-04-25 16:38 | 22.51540 | -38.01905 | 40107 ft | 518 kts | 105° |
| 2026-04-25 16:38 | 22.49645 | -37.94328 | 40114 ft | 518 kts | 105° |
| 2026-04-25 16:39 | 22.47758 | -37.86801 | 40109 ft | 519 kts | 105° |
| 2026-04-25 16:39 | 22.45866 | -37.79268 | 40108 ft | 519 kts | 105° |
| 2026-04-25 16:40 | 22.43981 | -37.71779 | 40106 ft | 520 kts | 105° |
| 2026-04-25 16:40 | 22.42077 | -37.64234 | 40107 ft | 521 kts | 105° |
| 2026-04-25 16:41 | 22.40168 | -37.56681 | 40109 ft | 521 kts | 105° |
| 2026-04-25 16:41 | 22.37295 | -37.45347 | 40112 ft | 521 kts | 105° |
| 2026-04-25 16:42 | 22.35376 | -37.37795 | 40105 ft | 522 kts | 105° |
| 2026-04-25 16:42 | 22.33451 | -37.30239 | 40106 ft | 522 kts | 105° |
| 2026-04-25 16:43 | 22.31525 | -37.22692 | 40113 ft | 521 kts | 105° |
| 2026-04-25 16:43 | 22.29595 | -37.15143 | 40107 ft | 521 kts | 105° |
| 2026-04-25 16:44 | 22.27661 | -37.07597 | 40106 ft | 521 kts | 105° |
| 2026-04-25 16:44 | 22.25727 | -37.00064 | 40102 ft | 520 kts | 105° |
| 2026-04-25 16:45 | 22.23790 | -36.92540 | 40103 ft | 520 kts | 105° |
| 2026-04-25 16:45 | 22.21851 | -36.85020 | 40106 ft | 520 kts | 106° |
| 2026-04-25 16:46 | 22.19911 | -36.77510 | 40104 ft | 519 kts | 106° |
| 2026-04-25 16:46 | 22.18296 | -36.71271 | 40110 ft | 519 kts | 106° |
| 2026-04-25 16:47 | 22.16020 | -36.62497 | 40105 ft | 519 kts | 106° |
| 2026-04-25 16:47 | 22.14070 | -36.54997 | 40080 ft | 519 kts | 106° |
| 2026-04-25 16:48 | 22.12119 | -36.47507 | 40100 ft | 519 kts | 106° |
| 2026-04-25 16:48 | 22.10164 | -36.40020 | 40104 ft | 518 kts | 106° |
| 2026-04-25 16:49 | 22.08209 | -36.32543 | 40106 ft | 518 kts | 106° |
| 2026-04-25 16:49 | 22.06248 | -36.25063 | 40116 ft | 518 kts | 106° |
| 2026-04-25 16:50 | 22.04286 | -36.17589 | 40103 ft | 519 kts | 106° |
| 2026-04-25 16:50 | 22.02319 | -36.10111 | 40104 ft | 519 kts | 106° |
| 2026-04-25 16:51 | 22.00348 | -36.02633 | 40091 ft | 518 kts | 106° |
| 2026-04-25 16:51 | 21.98629 | -35.96449 | 40202 ft | 518 kts | 110° |
| 2026-04-25 16:52 | 21.96951 | -35.91591 | 40367 ft | 517 kts | 112° |
| 2026-04-25 16:52 | 21.95615 | -35.87989 | 40491 ft | 518 kts | 113° |
| 2026-04-25 16:52 | 21.94269 | -35.84392 | 40611 ft | 518 kts | 113° |
| 2026-04-25 16:52 | 21.92937 | -35.80791 | 40730 ft | 518 kts | 112° |
| 2026-04-25 16:53 | 21.90328 | -35.73560 | 40988 ft | 518 kts | 112° |
| 2026-04-25 16:53 | 21.89046 | -35.69942 | 41079 ft | 517 kts | 112° |
| 2026-04-25 16:54 | 21.86490 | -35.62692 | 41098 ft | 518 kts | 112° |
| 2026-04-25 16:54 | 21.83941 | -35.55465 | 41102 ft | 515 kts | 112° |
| 2026-04-25 16:55 | 21.81395 | -35.48273 | 41105 ft | 514 kts | 112° |
| 2026-04-25 16:55 | 21.78849 | -35.41102 | 41094 ft | 513 kts | 112° |
| 2026-04-25 16:56 | 21.76304 | -35.33945 | 41097 ft | 511 kts | 112° |
| 2026-04-25 16:56 | 21.73761 | -35.26806 | 41098 ft | 511 kts | 112° |
| 2026-04-25 16:57 | 21.71215 | -35.19669 | 41098 ft | 511 kts | 112° |
| 2026-04-25 16:57 | 21.68666 | -35.12532 | 41088 ft | 511 kts | 112° |
| 2026-04-25 16:58 | 21.66110 | -35.05390 | 41097 ft | 512 kts | 112° |
| 2026-04-25 16:58 | 21.63551 | -34.98247 | 41108 ft | 513 kts | 112° |
| 2026-04-25 16:59 | 21.60983 | -34.91093 | 41097 ft | 514 kts | 112° |
| 2026-04-25 16:59 | 21.58408 | -34.83928 | 41090 ft | 514 kts | 112° |
| 2026-04-25 17:00 | 21.55825 | -34.76754 | 41093 ft | 515 kts | 112° |
| 2026-04-25 17:00 | 21.53236 | -34.69572 | 41077 ft | 516 kts | 112° |
| 2026-04-25 17:01 | 21.50644 | -34.62393 | 41094 ft | 516 kts | 112° |
| 2026-04-25 17:01 | 21.48046 | -34.55212 | 41090 ft | 516 kts | 112° |
| 2026-04-25 17:02 | 21.45445 | -34.48031 | 41089 ft | 516 kts | 112° |
| 2026-04-25 17:02 | 21.42843 | -34.40858 | 41086 ft | 516 kts | 112° |
| 2026-04-25 17:03 | 21.40239 | -34.33690 | 41091 ft | 515 kts | 112° |
| 2026-04-25 17:03 | 21.37634 | -34.26531 | 41088 ft | 515 kts | 112° |
| 2026-04-25 17:04 | 21.35030 | -34.19386 | 41095 ft | 514 kts | 112° |
| 2026-04-25 17:04 | 21.32424 | -34.12247 | 41082 ft | 514 kts | 112° |
| 2026-04-25 17:05 | 21.29819 | -34.05122 | 41088 ft | 513 kts | 112° |
| 2026-04-25 17:05 | 21.25980 | -33.94419 | 41087 ft | 512 kts | 111° |
| 2026-04-25 17:06 | 21.23466 | -33.87279 | 41087 ft | 512 kts | 113° |
| 2026-04-25 17:06 | 21.20771 | -33.80224 | 41088 ft | 511 kts | 114° |
| 2026-04-25 17:07 | 21.18099 | -33.73163 | 41083 ft | 511 kts | 113° |
| 2026-04-25 17:07 | 21.15476 | -33.66094 | 41086 ft | 511 kts | 113° |
| 2026-04-25 17:08 | 21.12874 | -33.59013 | 41085 ft | 510 kts | 113° |
| 2026-04-25 17:08 | 21.10263 | -33.51945 | 41084 ft | 510 kts | 113° |
| 2026-04-25 17:09 | 21.07647 | -33.44885 | 41085 ft | 510 kts | 113° |
| 2026-04-25 17:09 | 21.05027 | -33.37822 | 41088 ft | 510 kts | 113° |
| 2026-04-25 17:10 | 21.02403 | -33.30757 | 41084 ft | 511 kts | 113° |
| 2026-04-25 17:10 | 20.99777 | -33.23694 | 41086 ft | 511 kts | 113° |
| 2026-04-25 17:11 | 20.97145 | -33.16626 | 41079 ft | 511 kts | 113° |
| 2026-04-25 17:11 | 20.94509 | -33.09559 | 41079 ft | 512 kts | 113° |
| 2026-04-25 17:12 | 20.92313 | -33.03676 | 41086 ft | 512 kts | 113° |
| 2026-04-25 17:12 | 20.89667 | -32.96601 | 41076 ft | 513 kts | 113° |
| 2026-04-25 17:13 | 20.87464 | -32.90716 | 41076 ft | 513 kts | 113° |
| 2026-04-25 17:13 | 20.84360 | -32.82439 | 41057 ft | 513 kts | 113° |
| 2026-04-25 17:14 | 20.81702 | -32.75360 | 41075 ft | 513 kts | 113° |
| 2026-04-25 17:14 | 20.79042 | -32.68287 | 41077 ft | 513 kts | 113° |
| 2026-04-25 17:15 | 20.76380 | -32.61220 | 41088 ft | 513 kts | 113° |
| 2026-04-25 17:15 | 20.73713 | -32.54150 | 41074 ft | 513 kts | 113° |
| 2026-04-25 17:16 | 20.71047 | -32.47091 | 41075 ft | 512 kts | 113° |
| 2026-04-25 17:16 | 20.68377 | -32.40033 | 41070 ft | 512 kts | 113° |
| 2026-04-25 17:17 | 20.65707 | -32.32984 | 41076 ft | 512 kts | 114° |
| 2026-04-25 17:17 | 20.63036 | -32.25943 | 41062 ft | 511 kts | 114° |
| 2026-04-25 17:18 | 20.60364 | -32.18910 | 41067 ft | 511 kts | 114° |
| 2026-04-25 17:18 | 20.57692 | -32.11884 | 41071 ft | 510 kts | 114° |
| 2026-04-25 17:19 | 20.55021 | -32.04872 | 41071 ft | 510 kts | 114° |
| 2026-04-25 17:19 | 20.52345 | -31.97858 | 41064 ft | 510 kts | 114° |
| 2026-04-25 17:20 | 20.49669 | -31.90851 | 41066 ft | 510 kts | 114° |
| 2026-04-25 17:20 | 20.46991 | -31.83851 | 41061 ft | 509 kts | 114° |
| 2026-04-25 17:21 | 20.44314 | -31.76860 | 41061 ft | 509 kts | 114° |
| 2026-04-25 17:21 | 20.41613 | -31.69885 | 41059 ft | 508 kts | 116° |
| 2026-04-25 17:22 | 20.39162 | -31.64202 | 41060 ft | 507 kts | 118° |
| 2026-04-25 17:22 | 20.35590 | -31.56282 | 41060 ft | 507 kts | 118° |
| 2026-04-25 17:23 | 20.32557 | -31.49491 | 41067 ft | 507 kts | 117° |
| 2026-04-25 17:23 | 20.29686 | -31.42617 | 41060 ft | 508 kts | 115° |
| 2026-04-25 17:24 | 20.26824 | -31.35742 | 41062 ft | 507 kts | 116° |
| 2026-04-25 17:24 | 20.23871 | -31.28918 | 41056 ft | 507 kts | 117° |
| 2026-04-25 17:25 | 20.20868 | -31.22123 | 41063 ft | 508 kts | 117° |
| 2026-04-25 17:25 | 20.17842 | -31.15308 | 41066 ft | 510 kts | 117° |
| 2026-04-25 17:26 | 20.14823 | -31.08507 | 41060 ft | 513 kts | 117° |
| 2026-04-25 17:26 | 20.11774 | -31.01633 | 41058 ft | 514 kts | 117° |
| 2026-04-25 17:27 | 20.08718 | -30.94749 | 41044 ft | 515 kts | 117° |
| 2026-04-25 17:27 | 20.06673 | -30.90148 | 41053 ft | 514 kts | 117° |
| 2026-04-25 17:28 | 20.02615 | -30.81030 | 41036 ft | 508 kts | 117° |
| 2026-04-25 17:28 | 19.99615 | -30.74297 | 41053 ft | 502 kts | 117° |
| 2026-04-25 17:29 | 19.96622 | -30.67593 | 41060 ft | 502 kts | 117° |
| 2026-04-25 17:29 | 19.93628 | -30.60894 | 41054 ft | 502 kts | 117° |
| 2026-04-25 17:30 | 19.90629 | -30.54192 | 41051 ft | 502 kts | 117° |
| 2026-04-25 17:30 | 19.87629 | -30.47494 | 41044 ft | 502 kts | 117° |
| 2026-04-25 17:31 | 19.84627 | -30.40801 | 41046 ft | 502 kts | 117° |
| 2026-04-25 17:31 | 19.81624 | -30.34112 | 41045 ft | 502 kts | 117° |
| 2026-04-25 17:32 | 19.78617 | -30.27423 | 41046 ft | 502 kts | 117° |
| 2026-04-25 17:32 | 19.75610 | -30.20744 | 41046 ft | 501 kts | 117° |
| 2026-04-25 17:33 | 19.72601 | -30.14067 | 41049 ft | 501 kts | 117° |
| 2026-04-25 17:33 | 19.69591 | -30.07396 | 41050 ft | 501 kts | 118° |
| 2026-04-25 17:34 | 19.66578 | -30.00724 | 41037 ft | 501 kts | 118° |
| 2026-04-25 17:34 | 19.63568 | -29.94069 | 41042 ft | 500 kts | 118° |
| 2026-04-25 17:35 | 19.60557 | -29.87419 | 41044 ft | 500 kts | 118° |
| 2026-04-25 17:35 | 19.57545 | -29.80775 | 41051 ft | 500 kts | 118° |
| 2026-04-25 17:36 | 19.54533 | -29.74139 | 41042 ft | 500 kts | 118° |
| 2026-04-25 17:36 | 19.51518 | -29.67504 | 41039 ft | 499 kts | 118° |
| 2026-04-25 17:37 | 19.48501 | -29.60875 | 41038 ft | 499 kts | 118° |
| 2026-04-25 17:37 | 19.45485 | -29.54252 | 41033 ft | 499 kts | 118° |
| 2026-04-25 17:38 | 19.43466 | -29.49824 | 41041 ft | 499 kts | 118° |
| 2026-04-25 17:38 | 19.39446 | -29.41017 | 41037 ft | 499 kts | 118° |
| 2026-04-25 17:39 | 19.36424 | -29.34405 | 41032 ft | 499 kts | 118° |
| 2026-04-25 17:39 | 19.33399 | -29.27794 | 41033 ft | 499 kts | 118° |
| 2026-04-25 17:40 | 19.30864 | -29.22261 | 41038 ft | 499 kts | 118° |
| 2026-04-25 17:40 | 19.27341 | -29.14579 | 41037 ft | 499 kts | 118° |
| 2026-04-25 17:41 | 19.24307 | -29.07972 | 41025 ft | 499 kts | 118° |
| 2026-04-25 17:41 | 19.21253 | -29.01329 | 41027 ft | 499 kts | 118° |
| 2026-04-25 17:42 | 19.18217 | -28.94732 | 41042 ft | 498 kts | 118° |
| 2026-04-25 17:42 | 19.15198 | -28.88180 | 41027 ft | 498 kts | 118° |
| 2026-04-25 17:43 | 19.12159 | -28.81593 | 41030 ft | 498 kts | 118° |
| 2026-04-25 17:43 | 19.09119 | -28.75010 | 41026 ft | 498 kts | 118° |
| 2026-04-25 17:44 | 19.06078 | -28.68433 | 41028 ft | 498 kts | 118° |
| 2026-04-25 17:44 | 19.03036 | -28.61860 | 41027 ft | 498 kts | 118° |
| 2026-04-25 17:45 | 19.00999 | -28.57465 | 41027 ft | 498 kts | 118° |
| 2026-04-25 17:45 | 18.96945 | -28.48723 | 41022 ft | 498 kts | 118° |
| 2026-04-25 17:46 | 18.93898 | -28.42162 | 41020 ft | 497 kts | 118° |
| 2026-04-25 17:46 | 18.90847 | -28.35602 | 41019 ft | 497 kts | 118° |
| 2026-04-25 17:47 | 18.87796 | -28.29046 | 41020 ft | 498 kts | 118° |
| 2026-04-25 17:47 | 18.84740 | -28.22489 | 41020 ft | 498 kts | 118° |
| 2026-04-25 17:48 | 18.80153 | -28.12661 | 41026 ft | 497 kts | 118° |
| 2026-04-25 17:49 | 18.77095 | -28.06116 | 41013 ft | 497 kts | 118° |
| 2026-04-25 17:49 | 18.74037 | -27.99578 | 41022 ft | 497 kts | 118° |
| 2026-04-25 17:50 | 18.70980 | -27.93051 | 41016 ft | 496 kts | 118° |
| 2026-04-25 17:50 | 18.67923 | -27.86532 | 41015 ft | 496 kts | 118° |
| 2026-04-25 17:51 | 18.64867 | -27.80020 | 41027 ft | 495 kts | 118° |
| 2026-04-25 17:51 | 18.61811 | -27.73516 | 41019 ft | 495 kts | 118° |
| 2026-04-25 17:52 | 18.58757 | -27.67025 | 41005 ft | 494 kts | 118° |
| 2026-04-25 17:52 | 18.55704 | -27.60542 | 41016 ft | 493 kts | 118° |
| 2026-04-25 17:53 | 18.52655 | -27.54072 | 41013 ft | 493 kts | 118° |
| 2026-04-25 17:53 | 18.50118 | -27.48697 | 41014 ft | 493 kts | 119° |
| 2026-04-25 17:54 | 18.47067 | -27.42238 | 41013 ft | 493 kts | 119° |
| 2026-04-25 17:54 | 18.44013 | -27.35780 | 41015 ft | 493 kts | 119° |
| 2026-04-25 17:55 | 18.40955 | -27.29319 | 41009 ft | 493 kts | 119° |
| 2026-04-25 17:55 | 18.37894 | -27.22859 | 41012 ft | 493 kts | 119° |
| 2026-04-25 17:56 | 18.34828 | -27.16396 | 41003 ft | 493 kts | 119° |
| 2026-04-25 17:56 | 18.31759 | -27.09932 | 41008 ft | 494 kts | 119° |
| 2026-04-25 17:57 | 18.28686 | -27.03469 | 41010 ft | 494 kts | 119° |
| 2026-04-25 17:57 | 18.25610 | -26.97004 | 41003 ft | 494 kts | 119° |
| 2026-04-25 17:58 | 18.22528 | -26.90535 | 41008 ft | 495 kts | 119° |
| 2026-04-25 17:58 | 18.19441 | -26.84063 | 41006 ft | 495 kts | 119° |
| 2026-04-25 17:59 | 18.16353 | -26.77592 | 41003 ft | 495 kts | 119° |
| 2026-04-25 17:59 | 18.13256 | -26.71114 | 40996 ft | 498 kts | 119° |
| 2026-04-25 18:00 | 18.10654 | -26.65676 | 41016 ft | 504 kts | 119° |
| 2026-04-25 18:00 | 18.06939 | -26.57921 | 41009 ft | 510 kts | 119° |
| 2026-04-25 18:01 | 18.03738 | -26.51242 | 41006 ft | 513 kts | 119° |
| 2026-04-25 18:01 | 18.00525 | -26.44546 | 40999 ft | 513 kts | 119° |
| 2026-04-25 18:02 | 17.97328 | -26.37888 | 40996 ft | 510 kts | 119° |
| 2026-04-25 18:02 | 17.94125 | -26.31229 | 40997 ft | 511 kts | 119° |
| 2026-04-25 18:03 | 17.90940 | -26.24613 | 40999 ft | 511 kts | 119° |
| 2026-04-25 18:03 | 17.87734 | -26.17962 | 40989 ft | 510 kts | 119° |
| 2026-04-25 18:04 | 17.84537 | -26.11335 | 40988 ft | 508 kts | 119° |
| 2026-04-25 18:04 | 17.81347 | -26.04727 | 40991 ft | 507 kts | 119° |
| 2026-04-25 18:05 | 17.78112 | -25.98170 | 40991 ft | 505 kts | 121° |
| 2026-04-25 18:05 | 17.74737 | -25.91718 | 40996 ft | 504 kts | 122° |
| 2026-04-25 18:06 | 17.71341 | -25.85282 | 40994 ft | 504 kts | 121° |
| 2026-04-25 18:06 | 17.67966 | -25.78842 | 40992 ft | 504 kts | 121° |
| 2026-04-25 18:07 | 17.64605 | -25.72403 | 40981 ft | 503 kts | 121° |
| 2026-04-25 18:07 | 17.61246 | -25.65965 | 40993 ft | 503 kts | 121° |
| 2026-04-25 18:08 | 17.57888 | -25.59536 | 40988 ft | 503 kts | 121° |
| 2026-04-25 18:08 | 17.54528 | -25.53113 | 40991 ft | 503 kts | 121° |
| 2026-04-25 18:09 | 17.51162 | -25.46687 | 40987 ft | 503 kts | 121° |
| 2026-04-25 18:09 | 17.47797 | -25.40267 | 40987 ft | 503 kts | 121° |
| 2026-04-25 18:10 | 17.44428 | -25.33846 | 40989 ft | 503 kts | 121° |
| 2026-04-25 18:10 | 17.41055 | -25.27424 | 40991 ft | 503 kts | 121° |
| 2026-04-25 18:11 | 17.37682 | -25.21007 | 40986 ft | 503 kts | 121° |
| 2026-04-25 18:11 | 17.34309 | -25.14599 | 40990 ft | 502 kts | 121° |
| 2026-04-25 18:12 | 17.30937 | -25.08196 | 40989 ft | 502 kts | 121° |
| 2026-04-25 18:12 | 17.27564 | -25.01799 | 40990 ft | 502 kts | 121° |
| 2026-04-25 18:13 | 17.24188 | -24.95404 | 40982 ft | 502 kts | 122° |
| 2026-04-25 18:13 | 17.20815 | -24.89018 | 40985 ft | 502 kts | 122° |
| 2026-04-25 18:14 | 17.15749 | -24.79439 | 40979 ft | 502 kts | 122° |
| 2026-04-25 18:14 | 17.12374 | -24.73067 | 40985 ft | 501 kts | 122° |
| 2026-04-25 18:15 | 17.09000 | -24.66701 | 40973 ft | 500 kts | 122° |
| 2026-04-25 18:15 | 17.05629 | -24.60348 | 40975 ft | 499 kts | 122° |
| 2026-04-25 18:16 | 17.02261 | -24.54006 | 40976 ft | 499 kts | 122° |
| 2026-04-25 18:17 | 16.97209 | -24.44504 | 40957 ft | 499 kts | 122° |
| 2026-04-25 18:17 | 16.93840 | -24.38175 | 40966 ft | 498 kts | 122° |
| 2026-04-25 18:18 | 16.90471 | -24.31851 | 40959 ft | 498 kts | 122° |
| 2026-04-25 18:18 | 16.87101 | -24.25533 | 40958 ft | 497 kts | 122° |
| 2026-04-25 18:19 | 16.83736 | -24.19229 | 40959 ft | 497 kts | 122° |
| 2026-04-25 18:19 | 16.80373 | -24.12935 | 40964 ft | 496 kts | 122° |
| 2026-04-25 18:20 | 16.77011 | -24.06647 | 40968 ft | 496 kts | 122° |
| 2026-04-25 18:20 | 16.73649 | -24.00368 | 40965 ft | 496 kts | 122° |
| 2026-04-25 18:21 | 16.70286 | -23.94091 | 40970 ft | 496 kts | 122° |
| 2026-04-25 18:21 | 16.66922 | -23.87818 | 40967 ft | 495 kts | 122° |
| 2026-04-25 18:22 | 16.63559 | -23.81552 | 40959 ft | 495 kts | 122° |
| 2026-04-25 18:22 | 16.60189 | -23.75280 | 40960 ft | 495 kts | 122° |
| 2026-04-25 18:23 | 16.56842 | -23.69056 | 40958 ft | 496 kts | 122° |
| 2026-04-25 18:23 | 16.53469 | -23.62787 | 40957 ft | 496 kts | 122° |
| 2026-04-25 18:24 | 16.50093 | -23.56520 | 40953 ft | 496 kts | 122° |
| 2026-04-25 18:24 | 16.46716 | -23.50257 | 40952 ft | 496 kts | 122° |
| 2026-04-25 18:25 | 16.43333 | -23.43988 | 40952 ft | 496 kts | 122° |
| 2026-04-25 18:25 | 16.39950 | -23.37726 | 40951 ft | 496 kts | 122° |
| 2026-04-25 18:26 | 16.36563 | -23.31460 | 40939 ft | 496 kts | 122° |
| 2026-04-25 18:26 | 16.33182 | -23.25211 | 40950 ft | 495 kts | 122° |
| 2026-04-25 18:27 | 16.29803 | -23.18973 | 40949 ft | 494 kts | 122° |
| 2026-04-25 18:27 | 16.26427 | -23.12744 | 40951 ft | 494 kts | 122° |
| 2026-04-25 18:28 | 16.23051 | -23.06521 | 40947 ft | 494 kts | 122° |
| 2026-04-25 18:28 | 16.19675 | -23.00304 | 40950 ft | 493 kts | 122° |
| 2026-04-25 18:29 | 16.14609 | -22.90981 | 40943 ft | 493 kts | 122° |
| 2026-04-25 18:30 | 16.07936 | -22.78509 | 40938 ft | 493 kts | 121° |
| 2026-04-25 18:30 | 16.04631 | -22.72262 | 40938 ft | 493 kts | 122° |
| 2026-04-25 18:31 | 16.01316 | -22.66019 | 40939 ft | 493 kts | 122° |
| 2026-04-25 18:31 | 15.98001 | -22.59788 | 40949 ft | 492 kts | 122° |
| 2026-04-25 18:32 | 15.94684 | -22.53564 | 40942 ft | 492 kts | 122° |
| 2026-04-25 18:32 | 15.91366 | -22.47342 | 40945 ft | 492 kts | 122° |
| 2026-04-25 18:33 | 15.88048 | -22.41125 | 40944 ft | 492 kts | 122° |
| 2026-04-25 18:33 | 15.84726 | -22.34905 | 40945 ft | 492 kts | 122° |
| 2026-04-25 18:34 | 15.81406 | -22.28695 | 40936 ft | 492 kts | 122° |
| 2026-04-25 18:34 | 15.78109 | -22.22533 | 40941 ft | 491 kts | 122° |
| 2026-04-25 18:35 | 15.74792 | -22.16339 | 40941 ft | 491 kts | 122° |
| 2026-04-25 18:35 | 15.71471 | -22.10144 | 40928 ft | 491 kts | 122° |
| 2026-04-25 18:36 | 15.68153 | -22.03959 | 40935 ft | 491 kts | 122° |
| 2026-04-25 18:36 | 15.64832 | -21.97772 | 40935 ft | 491 kts | 122° |
| 2026-04-25 18:37 | 15.61509 | -21.91589 | 40926 ft | 491 kts | 122° |
| 2026-04-25 18:37 | 15.58186 | -21.85411 | 40937 ft | 491 kts | 122° |
| 2026-04-25 18:38 | 15.54862 | -21.79235 | 40936 ft | 490 kts | 122° |
| 2026-04-25 18:38 | 15.51540 | -21.73067 | 40927 ft | 490 kts | 122° |
| 2026-04-25 18:39 | 15.48776 | -21.67941 | 40931 ft | 489 kts | 122° |
| 2026-04-25 18:39 | 15.45455 | -21.61785 | 40917 ft | 489 kts | 122° |
| 2026-04-25 18:40 | 15.42134 | -21.55634 | 40927 ft | 489 kts | 122° |
| 2026-04-25 18:40 | 15.38812 | -21.49488 | 40926 ft | 489 kts | 122° |
| 2026-04-25 18:41 | 15.35487 | -21.43341 | 40927 ft | 489 kts | 122° |
| 2026-04-25 18:41 | 15.32163 | -21.37199 | 40925 ft | 489 kts | 122° |
| 2026-04-25 18:42 | 15.29399 | -21.32097 | 40923 ft | 489 kts | 122° |
| 2026-04-25 18:42 | 15.25513 | -21.24929 | 40925 ft | 488 kts | 122° |
| 2026-04-25 18:43 | 15.22192 | -21.18810 | 40917 ft | 487 kts | 122° |
| 2026-04-25 18:43 | 15.18874 | -21.12700 | 40923 ft | 487 kts | 122° |
| 2026-04-25 18:44 | 15.15556 | -21.06595 | 40919 ft | 486 kts | 122° |
| 2026-04-25 18:44 | 15.12239 | -21.00497 | 40920 ft | 486 kts | 122° |
| 2026-04-25 18:45 | 15.08919 | -20.94400 | 40917 ft | 486 kts | 122° |
| 2026-04-25 18:45 | 15.05602 | -20.88311 | 40918 ft | 486 kts | 122° |
| 2026-04-25 18:46 | 15.02282 | -20.82223 | 40919 ft | 486 kts | 122° |
| 2026-04-25 18:46 | 14.98985 | -20.76181 | 40917 ft | 485 kts | 121° |
| 2026-04-25 18:47 | 14.95647 | -20.70069 | 40915 ft | 485 kts | 121° |
| 2026-04-25 18:47 | 14.92355 | -20.64045 | 40913 ft | 484 kts | 122° |
| 2026-04-25 18:48 | 14.89043 | -20.57990 | 40915 ft | 484 kts | 122° |
| 2026-04-25 18:48 | 14.85731 | -20.51940 | 40914 ft | 483 kts | 122° |
| 2026-04-25 18:49 | 14.82420 | -20.45896 | 40910 ft | 483 kts | 122° |
| 2026-04-25 18:49 | 14.79110 | -20.39858 | 40910 ft | 483 kts | 122° |
| 2026-04-25 18:50 | 14.75798 | -20.33821 | 40909 ft | 483 kts | 122° |
| 2026-04-25 18:50 | 14.72486 | -20.27788 | 40910 ft | 483 kts | 122° |
| 2026-04-25 18:51 | 14.69712 | -20.22736 | 40910 ft | 482 kts | 121° |
| 2026-04-25 18:51 | 14.67869 | -20.18563 | 40904 ft | 484 kts | 110° |
| 2026-04-25 18:51 | 14.66804 | -20.15273 | 40911 ft | 484 kts | 109° |
| 2026-04-25 18:52 | 14.64762 | -20.08655 | 40904 ft | 484 kts | 109° |
| 2026-04-25 18:52 | 14.62705 | -20.02045 | 40902 ft | 483 kts | 109° |
| 2026-04-25 18:53 | 14.60607 | -19.95450 | 40902 ft | 483 kts | 109° |
| 2026-04-25 18:53 | 14.58492 | -19.88868 | 40902 ft | 483 kts | 109° |
| 2026-04-25 18:54 | 14.55312 | -19.78992 | 40904 ft | 483 kts | 109° |
| 2026-04-25 18:55 | 14.53192 | -19.72410 | 40906 ft | 483 kts | 109° |
| 2026-04-25 18:55 | 14.51069 | -19.65825 | 40898 ft | 483 kts | 110° |
| 2026-04-25 18:56 | 14.48946 | -19.59245 | 40898 ft | 483 kts | 110° |
| 2026-04-25 18:56 | 14.46820 | -19.52663 | 40894 ft | 484 kts | 110° |
| 2026-04-25 18:57 | 14.44691 | -19.46078 | 40893 ft | 484 kts | 109° |
| 2026-04-25 18:57 | 14.42565 | -19.39510 | 40899 ft | 482 kts | 109° |
| 2026-04-25 18:58 | 14.40440 | -19.32951 | 40894 ft | 482 kts | 109° |
| 2026-04-25 18:58 | 14.38308 | -19.26380 | 40508 ft | 484 kts | 109° |
| 2026-04-25 18:58 | 14.37241 | -19.23093 | 40260 ft | 483 kts | 109° |
| 2026-04-25 18:59 | 14.35108 | -19.16527 | 39781 ft | 483 kts | 109° |
| 2026-04-25 18:59 | 14.32967 | -19.09944 | 39312 ft | 484 kts | 109° |
| 2026-04-25 19:00 | 14.30821 | -19.03352 | 38855 ft | 486 kts | 109° |
| 2026-04-25 19:00 | 14.29745 | -19.00049 | 38629 ft | 487 kts | 109° |
| 2026-04-25 19:01 | 14.27583 | -18.93419 | 38104 ft | 489 kts | 109° |
| 2026-04-25 19:01 | 14.26500 | -18.90099 | 37843 ft | 490 kts | 109° |
| 2026-04-25 19:01 | 14.25412 | -18.86768 | 37587 ft | 491 kts | 109° |
| 2026-04-25 19:01 | 14.24322 | -18.83431 | 37328 ft | 492 kts | 109° |
| 2026-04-25 19:02 | 14.22151 | -18.76789 | 36828 ft | 493 kts | 109° |
| 2026-04-25 19:02 | 14.21039 | -18.73391 | 36580 ft | 494 kts | 109° |
| 2026-04-25 19:02 | 14.19942 | -18.70037 | 36332 ft | 494 kts | 108° |
| 2026-04-25 19:03 | 14.18484 | -18.65587 | 36007 ft | 495 kts | 108° |
| 2026-04-25 19:03 | 14.16637 | -18.59951 | 35604 ft | 496 kts | 108° |
| 2026-04-25 19:03 | 14.15532 | -18.56583 | 35359 ft | 496 kts | 108° |
| 2026-04-25 19:04 | 14.13337 | -18.49897 | 34903 ft | 497 kts | 108° |
| 2026-04-25 19:04 | 14.12227 | -18.46518 | 34678 ft | 499 kts | 108° |
| 2026-04-25 19:05 | 14.09995 | -18.39727 | 34224 ft | 501 kts | 108° |
| 2026-04-25 19:05 | 14.07755 | -18.32922 | 33724 ft | 501 kts | 108° |
| 2026-04-25 19:05 | 14.06636 | -18.29524 | 32800 ft | 502 kts | 108° |
| 2026-04-25 19:06 | 14.05514 | -18.26121 | 31950 ft | 502 kts | 108° |
| 2026-04-25 19:06 | 14.03262 | -18.19290 | 30077 ft | 506 kts | 107° |
| 2026-04-25 19:06 | 14.02125 | -18.15844 | 28897 ft | 510 kts | 107° |
| 2026-04-25 19:07 | 13.99838 | -18.08918 | 26749 ft | 509 kts | 108° |
| 2026-04-25 19:07 | 13.98747 | -18.05477 | 25937 ft | 502 kts | 103° |
| 2026-04-25 19:08 | 13.98989 | -17.98510 | 24386 ft | 483 kts | 72° |
| 2026-04-25 19:08 | 14.00254 | -17.95351 | 23659 ft | 473 kts | 58° |
| 2026-04-25 19:09 | 14.06008 | -17.87364 | 21128 ft | 455 kts | 50° |
| 2026-04-25 19:09 | 14.07289 | -17.85669 | 20617 ft | 451 kts | 50° |
| 2026-04-25 19:09 | 14.11085 | -17.79388 | 18450 ft | 435 kts | 68° |
| 2026-04-25 19:10 | 14.11793 | -17.77466 | 17706 ft | 431 kts | 69° |
| 2026-04-25 19:10 | 14.13162 | -17.73630 | 16166 ft | 422 kts | 69° |
| 2026-04-25 19:10 | 14.14164 | -17.70819 | 15091 ft | 415 kts | 69° |
| 2026-04-25 19:10 | 14.15162 | -17.68056 | 14061 ft | 408 kts | 70° |
| 2026-04-25 19:11 | 14.16156 | -17.65335 | 13054 ft | 404 kts | 70° |
| 2026-04-25 19:11 | 14.17123 | -17.62708 | 12332 ft | 393 kts | 70° |
| 2026-04-25 19:11 | 14.18099 | -17.60069 | 11545 ft | 395 kts | 70° |
| 2026-04-25 19:11 | 14.19062 | -17.57471 | 10795 ft | 380 kts | 70° |
| 2026-04-25 19:12 | 14.19985 | -17.54987 | 10230 ft | 363 kts | 70° |
| 2026-04-25 19:12 | 14.20854 | -17.52647 | 10148 ft | 335 kts | 70° |
| 2026-04-25 19:12 | 14.21656 | -17.50489 | 10114 ft | 311 kts | 70° |
| 2026-04-25 19:12 | 14.22415 | -17.48442 | 10032 ft | 303 kts | 70° |
| 2026-04-25 19:13 | 14.23161 | -17.46423 | 9920 ft | 300 kts | 70° |
| 2026-04-25 19:13 | 14.23905 | -17.44414 | 9716 ft | 301 kts | 71° |
| 2026-04-25 19:13 | 14.24657 | -17.42378 | 9394 ft | 306 kts | 70° |
| 2026-04-25 19:13 | 14.25411 | -17.40335 | 9058 ft | 303 kts | 70° |
| 2026-04-25 19:14 | 14.26158 | -17.38316 | 8729 ft | 300 kts | 69° |
| 2026-04-25 19:14 | 14.26409 | -17.37638 | 8621 ft | 299 kts | 69° |
| 2026-04-25 19:14 | 14.27629 | -17.34336 | 8097 ft | 294 kts | 69° |
| 2026-04-25 19:14 | 14.28354 | -17.32374 | 7772 ft | 292 kts | 68° |
| 2026-04-25 19:15 | 14.29074 | -17.30425 | 7452 ft | 290 kts | 68° |
| 2026-04-25 19:15 | 14.29782 | -17.28508 | 7136 ft | 281 kts | 68° |
| 2026-04-25 19:15 | 14.30466 | -17.26656 | 6847 ft | 273 kts | 68° |
| 2026-04-25 19:15 | 14.30897 | -17.24757 | 6544 ft | 276 kts | 91° |
| 2026-04-25 19:16 | 14.30376 | -17.22875 | 6339 ft | 274 kts | 113° |
| 2026-04-25 19:16 | 14.29561 | -17.21110 | 6105 ft | 273 kts | 113° |
| 2026-04-25 19:16 | 14.28737 | -17.19355 | 5914 ft | 271 kts | 112° |
| 2026-04-25 19:16 | 14.28295 | -17.17512 | 5839 ft | 262 kts | 82° |
| 2026-04-25 19:17 | 14.28882 | -17.15808 | 5849 ft | 251 kts | 55° |
| 2026-04-25 19:17 | 14.29835 | -17.14309 | 5836 ft | 250 kts | 53° |
| 2026-04-25 19:17 | 14.30780 | -17.12790 | 5838 ft | 254 kts | 54° |
| 2026-04-25 19:17 | 14.31744 | -17.11252 | 5828 ft | 257 kts | 54° |
| 2026-04-25 19:18 | 14.32718 | -17.09708 | 5767 ft | 258 kts | 53° |
| 2026-04-25 19:18 | 14.33697 | -17.08171 | 5632 ft | 253 kts | 48° |
| 2026-04-25 19:18 | 14.35074 | -17.07174 | 5477 ft | 240 kts | 13° |
| 2026-04-25 19:18 | 14.36705 | -17.07050 | 5418 ft | 233 kts | 359° |
| 2026-04-25 19:19 | 14.38316 | -17.07032 | 5254 ft | 232 kts | 360° |
| 2026-04-25 19:19 | 14.39937 | -17.07030 | 4988 ft | 233 kts | 359° |
| 2026-04-25 19:19 | 14.41561 | -17.07040 | 4696 ft | 234 kts | 359° |
| 2026-04-25 19:19 | 14.42087 | -17.07045 | 4608 ft | 234 kts | 359° |
| 2026-04-25 19:20 | 14.44805 | -17.07071 | 4093 ft | 229 kts | 359° |
| 2026-04-25 19:20 | 14.46377 | -17.07087 | 3825 ft | 229 kts | 359° |
| 2026-04-25 19:20 | 14.47970 | -17.07102 | 3542 ft | 223 kts | 359° |
| 2026-04-25 19:20 | 14.49487 | -17.07116 | 3263 ft | 213 kts | 359° |
| 2026-04-25 19:21 | 14.50894 | -17.07130 | 2992 ft | 195 kts | 0° |
| 2026-04-25 19:21 | 14.53438 | -17.07154 | 2547 ft | 181 kts | 0° |
| 2026-04-25 19:21 | 14.54683 | -17.07165 | 2306 ft | 178 kts | 359° |
| 2026-04-25 19:22 | 14.55902 | -17.07177 | 2085 ft | 173 kts | 0° |
| 2026-04-25 19:22 | 14.57058 | -17.07189 | 1861 ft | 158 kts | 1° |
| 2026-04-25 19:22 | 14.59051 | -17.07207 | 1510 ft | 133 kts | 2° |
| 2026-04-25 19:23 | 14.59945 | -17.07215 | 1324 ft | 128 kts | 2° |
| 2026-04-25 19:23 | 14.61709 | -17.07231 | 1024 ft | 129 kts | 359° |
| 2026-04-25 19:23 | 14.62616 | -17.07240 | 864 ft | 128 kts | 0° |
| 2026-04-25 19:24 | 14.63494 | -17.07245 | 724 ft | 124 kts | 359° |
| 2026-04-25 19:24 | 14.64356 | -17.07248 | 553 ft | 127 kts | 358° |
| 2026-04-25 19:24 | 14.66149 | -17.07272 | 288 ft | 122 kts | 358° |
| 2026-04-25 19:25 | 14.67376 | -17.07287 | 291 ft | 54 kts | 359° |
| 2026-04-25 19:25 | 14.67634 | -17.07267 | 287 ft | 20 kts | 14° |
| 2026-04-25 19:25 | 14.67713 | -17.07239 | 286 ft | 11 kts | 22° |
| 2026-04-25 19:26 | 14.67784 | -17.07203 | 284 ft | 12 kts | 27° |
| 2026-04-25 19:26 | 14.67829 | -17.07164 | 283 ft | 13 kts | 54° |
| 2026-04-25 19:26 | 14.67790 | -17.07103 | 286 ft | 13 kts | 166° |
| 2026-04-25 19:26 | 14.67705 | -17.07096 | 288 ft | 12 kts | 182° |
| 2026-04-25 19:27 | 14.67624 | -17.07097 | 295 ft | 6 kts | 181° |
| 2026-04-25 19:27 | 14.67600 | -17.07097 | 291 ft | 5 kts | 176° |
| 2026-04-25 19:27 | 14.67549 | -17.07080 | 291 ft | 7 kts | 140° |
| 2026-04-25 19:27 | 14.67535 | -17.07028 | 291 ft | 9 kts | 94° |
| 2026-04-25 19:28 | 14.67486 | -17.06982 | 295 ft | 13 kts | 174° |
| 2026-04-25 19:28 | 14.67378 | -17.06980 | 291 ft | 17 kts | 181° |
| 2026-04-25 19:28 | 14.67308 | -17.06981 | 291 ft | 8 kts | 179° |
| 2026-04-25 19:28 | 14.67253 | -17.06973 | 293 ft | 8 kts | 151° |
| 2026-04-25 19:29 | 14.67219 | -17.06928 | 293 ft | 8 kts | 122° |
| 2026-04-25 19:29 | 14.67194 | -17.06886 | 292 ft | 5 kts | 123° |
| 2026-04-25 19:29 | 14.67182 | -17.06869 | 291 ft | 2 kts | 123° |
| 2026-04-25 19:29 | 14.67175 | -17.06857 | 291 ft | 1 kts | 123° |